KBAB/BAB METAR and TAF weather

Enter ICAO airport designator
Station Type Date Time Source
KBAB METAR 2019/06/16 06:58 UTC NOAA

KBAB 160658Z AUTO M M M M M M RMK AO2 SLPNO RVRNO PWINO PNO FZRANO VISNO RWY33 CHINO RWY33 $


Station Type Date Time Source
KBAB Decoded METAR 2019/06/16 06:58 UTC NOAA

Marysville, Beale Air Force Base, CA, United States (KBAB) 39-08N 121-26W
Jun 16, 2019 - 02:58 AM EDT / 2019.06.16 0658 UTC
ob: KBAB 160658Z AUTO M M M M M M RMK AO2 SLPNO RVRNO PWINO PNO FZRANO VISNO RWY33 CHINO RWY33
cycle: 7

Station Type Date Time Source
KBAB TAF 2019/06/15 22:38 UTC NOAA

TAF
AMD KBAB 152231Z 1522/1701 17009KT 9999 FEW250 QNH2970INS TX32/1523Z TN13/1612Z LAST NO
AMDS AFT 1523 NEXT 1619

Example: see airport list